Time;durP1;ratioP1;P1;durP2;ratioP2;P2;SDS_P1;SDS_P2;PMS_P1;PMS_P2;Temp;Humidity;BMP_temperature;BMP_pressure;BME280_temperature;BME280_humidity;BME280_pressure;Samples;Min_cycle;Max_cycle;Signal;HPM_P1;HPM_P2
2022/01/27 00:01:02;;;;;;;;;;;;;;;0.12;97.68;101206.22;12258123;19;20014;-86
2022/01/27 00:15:08;;;;;;;33.50;14.25;;;;;;;0.09;97.34;101200.19;12262031;19;20015;-86
2022/01/27 00:19:27;;;;;;;34.95;15.40;;;;;;;0.02;97.12;101201.81;12264676;19;20044;-87
2022/01/27 00:29:24;;;;;;;39.72;15.85;;;;;;;0.08;97.22;101204.78;12263220;19;20002;-86
2022/01/27 00:33:47;;;;;;;36.92;14.63;;;;;;;0.00;97.20;101193.84;12264074;19;20006;-86
2022/01/27 00:38:15;;;;;;;36.03;17.08;;;;;;;0.02;97.55;101186.38;12263753;19;20014;-85
2022/01/27 00:42:58;;;;;;;33.30;15.32;;;;;;;-0.01;97.80;101182.13;12260831;19;20013;-85
2022/01/27 00:48:15;;;;;;;33.13;13.82;;;;;;;-0.08;97.77;101167.47;12261507;19;20025;-85
2022/01/27 00:52:23;;;;;;;;;;;;;;;-0.10;98.10;101171.31;12261284;19;20011;-85
2022/01/27 01:01:03;;;;;;;36.80;15.70;;;;;;;-0.19;98.54;101159.50;12254669;19;20015;-86
2022/01/27 01:14:56;;;;;;;35.15;14.48;;;;;;;-0.15;98.74;101150.09;12243369;19;20326;-86
2022/01/27 01:19:12;;;;;;;33.33;14.60;;;;;;;-0.12;99.18;101144.38;12257174;19;20014;-87
2022/01/27 01:32:14;;;;;;;43.10;14.60;;;;;;;-0.03;98.91;101158.88;12240481;19;20567;-85
2022/01/27 01:36:26;;;;;;;33.00;13.75;;;;;;;0.00;98.65;101164.03;12236933;19;20758;-86
2022/01/27 01:40:28;;;;;;;23.95;9.82;;;;;;;0.03;98.67;101165.56;12243019;19;20027;-86
2022/01/27 01:44:30;;;;;;;38.95;14.77;;;;;;;0.02;98.57;101163.88;12235284;19;20007;-86
2022/01/27 01:48:32;;;;;;;35.38;14.73;;;;;;;-0.02;98.67;101156.03;12236509;19;20007;-86
2022/01/27 01:52:35;;;;;;;38.10;14.77;;;;;;;0.01;98.88;101149.47;12246700;19;20007;-86
2022/01/27 01:56:38;;;;;;;40.40;15.60;;;;;;;-0.01;99.00;101144.19;12236252;19;21017;-86
2022/01/27 02:00:40;;;;;;;37.28;16.42;;;;;;;0.03;99.06;101144.75;12236961;19;20014;-87
2022/01/27 02:04:43;;;;;;;36.00;15.98;;;;;;;0.06;99.12;101151.72;12246697;19;20022;-85
2022/01/27 02:21:54;;;;;;;47.95;18.45;;;;;;;-0.07;100.00;101131.22;12253715;19;19999;-85
2022/01/27 02:25:55;;;;;;;40.95;16.92;;;;;;;-0.04;100.00;101124.66;12260690;19;20041;-85
2022/01/27 02:29:58;;;;;;;45.70;16.97;;;;;;;-0.01;100.00;101119.78;12258831;19;20014;-85
2022/01/27 02:34:04;;;;;;;49.10;20.08;;;;;;;-0.06;100.00;101116.69;12257138;19;20594;-85
2022/01/27 02:38:06;;;;;;;47.28;17.15;;;;;;;-0.10;100.00;101104.44;12244686;19;19998;-84
2022/01/27 02:42:27;;;;;;;45.55;18.80;;;;;;;-0.04;100.00;101098.41;12244978;19;20006;-89
2022/01/27 02:46:40;;;;;;;41.92;16.70;;;;;;;-0.07;100.00;101087.88;12251214;19;20023;-89
2022/01/27 02:50:45;;;;;;;39.75;16.80;;;;;;;-0.12;100.00;101073.94;12247879;19;20007;-88
2022/01/27 02:54:47;;;;;;;46.10;18.05;;;;;;;-0.10;100.00;101061.06;12249698;19;20045;-87
2022/01/27 02:58:57;;;;;;;41.78;16.50;;;;;;;-0.08;100.00;101060.94;12243600;19;20107;-87
2022/01/27 03:02:59;;;;;;;48.13;16.80;;;;;;;-0.07;100.00;101068.91;12230002;19;20019;-87
2022/01/27 03:07:06;;;;;;;54.35;17.73;;;;;;;-0.08;100.00;101069.91;12231834;19;20027;-87
2022/01/27 03:11:32;;;;;;;46.45;16.17;;;;;;;-0.02;100.00;101066.59;12229306;19;20006;-88
2022/01/27 03:15:34;;;;;;;40.60;17.02;;;;;;;-0.10;100.00;101061.06;12234398;19;20002;-87
2022/01/27 03:19:41;;;;;;;48.65;17.75;;;;;;;-0.07;100.00;101060.78;12228240;19;20082;-88
2022/01/27 03:23:48;;;;;;;47.58;17.63;;;;;;;-0.02;100.00;101060.34;12232487;19;20010;-88
2022/01/27 03:28:10;;;;;;;40.13;16.80;;;;;;;-0.03;100.00;101056.78;12235201;19;20472;-88
2022/01/27 03:32:48;;;;;;;;;;;;;;;;;;;;;
2022/01/27 03:36:58;;;;;;;49.13;18.55;;;;;;;-0.07;100.00;101054.50;12231258;19;20019;-88
2022/01/27 03:41:46;;;;;;;42.92;17.40;;;;;;;0.01;100.00;101056.47;12235888;19;20011;-87
2022/01/27 03:45:51;;;;;;;42.92;16.98;;;;;;;-0.07;100.00;101040.97;12237537;19;20007;-87
2022/01/27 03:49:53;;;;;;;42.40;15.45;;;;;;;-0.17;100.00;101043.72;12235622;19;20002;-88
2022/01/27 03:53:55;;;;;;;41.03;15.43;;;;;;;-0.17;100.00;101037.47;12222084;19;20009;-87
2022/01/27 03:58:00;;;;;;;46.57;17.90;;;;;;;-0.12;100.00;101043.25;12224772;19;20010;-90
2022/01/27 04:02:11;;;;;;;42.00;16.67;;;;;;;-0.10;100.00;101057.53;12223336;19;20010;-89
2022/01/27 04:06:20;;;;;;;47.00;16.73;;;;;;;-0.09;100.00;101057.38;12221067;19;20018;-87
2022/01/27 04:10:22;;;;;;;44.70;17.13;;;;;;;-0.14;100.00;101043.44;12219124;19;20294;-89
2022/01/27 04:14:32;;;;;;;51.45;17.30;;;;;;;-0.12;100.00;101040.56;12226693;19;20011;-87
2022/01/27 04:18:36;;;;;;;47.33;17.40;;;;;;;-0.14;100.00;101032.59;12225719;19;20003;-89
2022/01/27 04:22:43;;;;;;;51.10;17.67;;;;;;;-0.12;100.00;101046.84;12222888;19;20015;-88
2022/01/27 04:26:55;;;;;;;48.35;17.88;;;;;;;-0.08;100.00;101050.94;12229171;19;20074;-87
2022/01/27 04:31:08;;;;;;;50.05;16.83;;;;;;;-0.17;100.00;101056.44;12218767;19;20032;-88
2022/01/27 04:35:15;;;;;;;43.15;16.70;;;;;;;-0.11;100.00;101048.53;12226535;19;20708;-89
2022/01/27 04:39:29;;;;;;;43.67;17.10;;;;;;;-0.09;100.00;101057.38;12224901;19;20074;-89
2022/01/27 04:48:02;;;;;;;44.05;16.88;;;;;;;-0.17;100.00;101051.84;12244351;19;20011;-89
2022/01/27 04:52:06;;;;;;;39.80;16.77;;;;;;;-0.09;100.00;101042.97;12235426;19;20082;-89
2022/01/27 04:56:20;;;;;;;40.70;15.20;;;;;;;-0.12;100.00;101037.84;12229964;19;20013;-87
2022/01/27 05:00:45;;;;;;;50.80;17.23;;;;;;;-0.16;100.00;101029.16;12232814;19;20464;-88
2022/01/27 05:04:50;;;;;;;41.70;16.58;;;;;;;-0.20;100.00;101032.34;12236737;19;20010;-89
2022/01/27 05:09:15;;;;;;;43.97;15.23;;;;;;;-0.21;100.00;101031.47;12234558;19;20010;-88
2022/01/27 05:13:19;;;;;;;41.40;14.93;;;;;;;-0.17;100.00;101015.78;12233541;19;20014;-88
2022/01/27 05:17:21;;;;;;;45.00;17.52;;;;;;;-0.17;100.00;101019.34;12249599;19;20015;-87
2022/01/27 05:21:25;;;;;;;34.88;14.38;;;;;;;-0.19;100.00;101018.63;12244548;19;20018;-85
2022/01/27 05:25:27;;;;;;;33.83;14.82;;;;;;;-0.18;100.00;101014.91;12251946;19;20413;-86
2022/01/27 05:29:28;;;;;;;40.33;15.57;;;;;;;-0.20;100.00;101026.94;12249145;19;20019;-86
2022/01/27 05:33:42;;;;;;;42.92;15.35;;;;;;;-0.20;100.00;101038.59;12237146;19;20007;-84
2022/01/27 05:37:59;;;;;;;35.63;14.60;;;;;;;-0.24;100.00;101039.88;12254723;19;20015;-87
2022/01/27 05:42:00;;;;;;;36.00;13.77;;;;;;;-0.25;100.00;101038.19;12255622;19;20011;-86
2022/01/27 05:46:02;;;;;;;39.38;15.90;;;;;;;-0.23;100.00;101038.91;12222888;19;20027;-87
2022/01/27 05:50:11;;;;;;;43.00;14.43;;;;;;;-0.20;100.00;101027.78;12249515;19;20046;-86
2022/01/27 05:54:18;;;;;;;35.97;15.30;;;;;;;-0.25;100.00;101028.22;12246579;19;20010;-87
2022/01/27 05:58:23;;;;;;;40.35;14.35;;;;;;;-0.22;100.00;101024.34;12255255;19;20014;-85
2022/01/27 06:02:25;;;;;;;31.25;12.40;;;;;;;-0.25;100.00;101030.91;12245274;19;20014;-86
2022/01/27 06:06:27;;;;;;;35.27;13.97;;;;;;;-0.25;100.00;101030.06;12253071;19;20014;-86
2022/01/27 06:10:28;;;;;;;37.88;13.43;;;;;;;-0.22;100.00;101029.78;12188366;19;20013;-87
2022/01/27 06:14:30;;;;;;;36.75;14.40;;;;;;;-0.16;100.00;101028.31;12240955;19;20010;-86
2022/01/27 06:18:34;;;;;;;40.20;15.80;;;;;;;-0.19;100.00;101028.63;12232235;19;20003;-88
2022/01/27 06:22:36;;;;;;;35.67;14.13;;;;;;;-0.17;100.00;101024.75;12241769;19;20019;-87
2022/01/27 06:26:38;;;;;;;36.05;12.82;;;;;;;-0.12;100.00;101036.00;12233029;19;20022;-86
2022/01/27 06:30:44;;;;;;;37.42;13.48;;;;;;;-0.16;100.00;101026.47;12233990;19;20022;-87
2022/01/27 06:34:46;;;;;;;35.20;13.40;;;;;;;-0.12;100.00;101041.44;12238178;19;20007;-85
2022/01/27 06:38:49;;;;;;;37.25;14.00;;;;;;;-0.18;100.00;101033.03;12229353;19;20078;-87
2022/01/27 06:43:07;;;;;;;36.67;14.60;;;;;;;-0.18;100.00;101022.19;12235576;19;20130;-87
2022/01/27 06:47:15;;;;;;;37.58;12.85;;;;;;;-0.13;100.00;101012.59;12232192;19;20022;-85
2022/01/27 06:51:17;;;;;;;37.30;14.10;;;;;;;-0.17;100.00;101016.63;12234470;19;20007;-86
2022/01/27 06:55:21;;;;;;;37.55;13.80;;;;;;;-0.12;100.00;101013.47;12246985;19;20031;-87
2022/01/27 06:59:44;;;;;;;37.00;13.35;;;;;;;-0.10;100.00;101006.88;12240040;19;20497;-85
2022/01/27 07:03:46;;;;;;;34.78;14.43;;;;;;;-0.07;100.00;101005.72;12263979;19;20010;-86
2022/01/27 07:07:50;;;;;;;39.25;13.18;;;;;;;-0.08;100.00;101012.16;12255140;19;20006;-86
2022/01/27 07:12:41;;;;;;;34.85;14.23;;;;;;;-0.08;100.00;101006.75;12244001;19;20062;-84
2022/01/27 07:17:12;;;;;;;34.47;13.32;;;;;;;-0.02;100.00;101007.00;12274441;19;20014;-84
2022/01/27 07:21:37;;;;;;;40.13;14.15;;;;;;;-0.09;100.00;100997.78;12250154;19;20010;-85
2022/01/27 07:25:39;;;;;;;38.55;14.30;;;;;;;-0.04;100.00;100989.16;12249327;19;20017;-85
2022/01/27 07:30:15;;;;;;;39.97;15.20;;;;;;;-0.18;100.00;100990.53;12245953;19;20042;-84
2022/01/27 07:34:45;;;;;;;32.47;13.52;;;;;;;-0.19;100.00;100986.13;12248652;19;20002;-85
2022/01/27 07:38:53;;;;;;;40.80;14.45;;;;;;;-0.12;100.00;100971.00;12252171;19;20010;-85
2022/01/27 07:42:57;;;;;;;42.80;16.40;;;;;;;-0.09;100.00;100965.25;12243678;19;20349;-86
2022/01/27 07:47:02;;;;;;;40.80;13.90;;;;;;;-0.10;100.00;100951.84;12250692;19;20074;-88
2022/01/27 07:51:30;;;;;;;45.28;15.52;;;;;;;-0.22;100.00;100945.78;12237728;19;20002;-87
2022/01/27 07:55:43;;;;;;;38.17;15.02;;;;;;;-0.22;100.00;100932.25;12232775;19;20003;-86
2022/01/27 07:59:48;;;;;;;41.58;15.68;;;;;;;-0.28;100.00;100930.16;12253125;19;20322;-85
2022/01/27 08:04:08;;;;;;;42.60;15.13;;;;;;;-0.22;100.00;100923.28;12239959;19;20031;-87
2022/01/27 08:08:36;;;;;;;40.33;15.27;;;;;;;-0.22;100.00;100915.16;12236929;19;20267;-85
2022/01/27 08:12:42;;;;;;;35.78;13.98;;;;;;;-0.22;100.00;100910.56;12245848;19;20015;-85
2022/01/27 08:16:44;;;;;;;37.65;14.50;;;;;;;-0.26;100.00;100904.63;12242787;19;20014;-87
2022/01/27 08:20:47;;;;;;;40.08;14.63;;;;;;;-0.19;100.00;100909.44;12232840;19;20007;-87
2022/01/27 08:24:49;;;;;;;;;;;;;;;-0.19;100.00;100899.44;12256162;19;20030;-86
2022/01/27 08:28:59;;;;;;;34.97;13.82;;;;;;;-0.17;100.00;100897.44;12271244;19;19910;-87
2022/01/27 08:33:08;;;;;;;38.08;14.25;;;;;;;-0.15;100.00;100890.00;12249699;19;20023;-88
2022/01/27 08:37:21;;;;;;;40.83;14.10;;;;;;;-0.13;100.00;100890.69;12252044;19;20018;-88
2022/01/27 08:41:26;;;;;;;34.58;13.70;;;;;;;-0.14;100.00;100901.69;12250670;19;20010;-88
2022/01/27 08:45:32;;;;;;;36.40;14.35;;;;;;;-0.17;100.00;100907.44;12251630;19;20002;-87
2022/01/27 08:49:47;;;;;;;35.42;13.02;;;;;;;-0.19;100.00;100907.56;12249837;19;20021;-87
2022/01/27 08:53:54;;;;;;;34.65;12.70;;;;;;;-0.20;100.00;100888.78;12235953;19;20021;-86
2022/01/27 08:58:06;;;;;;;33.85;14.35;;;;;;;-0.20;100.00;100905.03;12249849;19;20106;-88
2022/01/27 09:02:20;;;;;;;30.52;13.05;;;;;;;-0.20;100.00;100903.16;12255161;19;20408;-88
2022/01/27 09:06:25;;;;;;;36.92;12.95;;;;;;;-0.22;100.00;100904.31;12256227;19;20014;-88
2022/01/27 09:10:32;;;;;;;36.33;12.55;;;;;;;-0.30;100.00;100896.94;12247521;19;20040;-87
2022/01/27 09:14:38;;;;;;;33.80;12.50;;;;;;;-0.26;100.00;100892.94;12239952;19;20007;-87
2022/01/27 09:18:48;;;;;;;38.60;13.80;;;;;;;-0.33;100.00;100898.13;12239288;19;20086;-87
2022/01/27 09:23:13;;;;;;;31.00;11.75;;;;;;;-0.28;100.00;100889.53;12238692;19;20014;-87
2022/01/27 09:27:19;;;;;;;32.58;12.07;;;;;;;-0.25;100.00;100895.47;12252265;19;20014;-87
2022/01/27 09:31:30;;;;;;;35.92;13.30;;;;;;;-0.24;100.00;100909.88;12248382;19;20016;-86
2022/01/27 09:35:51;;;;;;;26.77;11.18;;;;;;;-0.26;100.00;100906.47;12241745;19;20010;-88
2022/01/27 09:40:16;;;;;;;35.83;11.85;;;;;;;-0.26;100.00;100904.63;12251947;19;20347;-87
2022/01/27 09:44:19;;;;;;;35.00;12.38;;;;;;;-0.24;100.00;100905.31;12240543;19;20021;-85
2022/01/27 09:48:37;;;;;;;28.80;10.55;;;;;;;-0.16;100.00;100903.69;12245118;19;20015;-86
2022/01/27 09:52:48;;;;;;;31.33;12.30;;;;;;;-0.14;100.00;100902.53;12242748;19;20022;-87
2022/01/27 09:56:52;;;;;;;29.52;11.73;;;;;;;-0.20;100.00;100897.75;12235104;19;20010;-86
2022/01/27 10:00:53;;;;;;;34.78;11.82;;;;;;;-0.22;100.00;100888.06;12242252;19;20092;-87
2022/01/27 10:04:57;;;;;;;36.23;12.70;;;;;;;-0.14;100.00;100886.28;12233852;19;20011;-85
2022/01/27 10:09:17;;;;;;;33.70;12.30;;;;;;;-0.05;100.00;100893.50;12233122;19;20007;-86
2022/01/27 10:13:38;;;;;;;36.30;12.05;;;;;;;-0.11;100.00;100885.97;12240605;19;20033;-87
2022/01/27 10:18:13;;;;;;;34.08;12.40;;;;;;;-0.16;100.00;100882.88;12239255;19;20026;-87
2022/01/27 10:22:15;;;;;;;33.72;11.13;;;;;;;-0.15;100.00;100881.00;12236547;19;20095;-87
2022/01/27 10:26:24;;;;;;;34.22;11.93;;;;;;;-0.14;100.00;100880.88;12246788;19;20002;-84
2022/01/27 10:30:46;;;;;;;32.28;12.75;;;;;;;-0.14;100.00;100883.56;12243777;19;20029;-87
2022/01/27 10:35:20;;;;;;;39.20;12.00;;;;;;;-0.05;100.00;100868.25;12233558;19;20497;-85
2022/01/27 10:39:49;;;;;;;31.90;12.10;;;;;;;-0.16;100.00;100868.47;12242746;19;20078;-86
2022/01/27 10:44:15;;;;;;;34.22;12.73;;;;;;;-0.03;100.00;100845.41;12233420;19;20050;-86
2022/01/27 10:48:28;;;;;;;30.25;10.77;;;;;;;0.02;100.00;100847.66;12252512;19;20035;-86
2022/01/27 10:52:49;;;;;;;24.95;10.55;;;;;;;-0.04;100.00;100838.28;12254646;19;20046;-87
2022/01/27 10:56:51;;;;;;;29.63;10.32;;;;;;;0.04;100.00;100840.22;12232568;19;20003;-87
2022/01/27 11:01:11;;;;;;;21.88;9.85;;;;;;;0.17;100.00;100861.50;12238553;19;20014;-85
2022/01/27 11:05:50;;;;;;;27.05;9.52;;;;;;;0.15;100.00;100844.53;12237048;19;20033;-87
2022/01/27 11:14:31;;;;;;;25.47;9.60;;;;;;;0.18;100.00;100841.53;12241193;19;20011;-88
2022/01/27 11:18:48;;;;;;;23.47;9.87;;;;;;;0.25;100.00;100829.03;12241866;19;20011;-88
2022/01/27 11:23:23;;;;;;;24.38;8.85;;;;;;;0.32;100.00;100826.53;12238316;19;20010;-87
2022/01/27 11:27:27;;;;;;;21.38;9.45;;;;;;;0.37;100.00;100807.94;12231466;19;20014;-87
2022/01/27 11:32:03;;;;;;;28.50;10.50;;;;;;;0.51;100.00;100820.06;12236896;19;20007;-87
2022/01/27 11:36:12;;;;;;;18.35;8.93;;;;;;;0.60;100.00;100836.22;12232620;19;20011;-88
2022/01/27 11:40:47;;;;;;;;;;;;;;;;;;;;;
2022/01/27 11:45:23;;;;;;;24.55;9.23;;;;;;;0.77;99.64;100793.75;12237493;19;20019;-84
2022/01/27 11:50:02;;;;;;;24.38;8.80;;;;;;;0.84;99.03;100791.25;12233699;19;20035;-86
2022/01/27 11:54:28;;;;;;;24.08;10.05;;;;;;;0.82;99.14;100785.97;12231877;19;20197;-88
2022/01/27 11:58:49;;;;;;;22.80;9.02;;;;;;;0.82;98.80;100791.41;12231774;19;20013;-86
2022/01/27 12:03:33;;;;;;;24.83;11.27;;;;;;;0.80;99.39;100784.44;12233612;19;19999;-87
2022/01/27 12:07:58;;;;;;;;;;;;;;;0.71;99.57;100778.13;12227614;19;20009;-87
2022/01/27 12:12:25;;;;;;;25.60;8.55;;;;;;;0.65;99.34;100760.66;12230628;19;19925;-87
2022/01/27 12:25:12;;;;;;;20.63;8.43;;;;;;;0.54;99.65;100760.09;12245772;19;20010;-88
2022/01/27 12:29:25;;;;;;;25.42;10.18;;;;;;;0.48;99.59;100758.88;12242894;19;20110;-87
2022/01/27 12:33:32;;;;;;;21.83;8.93;;;;;;;0.51;99.78;100749.56;12238785;19;20032;-85
2022/01/27 12:37:38;;;;;;;20.90;8.90;;;;;;;0.53;99.53;100726.66;12236154;19;20040;-87
2022/01/27 12:41:41;;;;;;;25.85;10.60;;;;;;;0.65;99.06;100735.38;12236505;19;20078;-86
2022/01/27 12:45:44;;;;;;;21.40;9.57;;;;;;;0.61;98.71;100724.00;12235535;19;20014;-86
2022/01/27 12:50:03;;;;;;;29.25;10.35;;;;;;;0.60;98.85;100721.47;12234860;19;20029;-86
2022/01/27 12:54:05;;;;;;;26.70;10.77;;;;;;;0.58;98.57;100720.78;12232724;19;20010;-85
2022/01/27 12:58:34;;;;;;;27.45;11.30;;;;;;;0.61;98.93;100718.56;12241603;19;20006;-86
2022/01/27 13:03:17;;;;;;;34.00;12.27;;;;;;;0.49;99.08;100705.47;12234049;19;20007;-86
2022/01/27 13:07:34;;;;;;;32.08;12.10;;;;;;;0.49;99.53;100703.63;12246146;19;20006;-87
2022/01/27 13:11:55;;;;;;;34.42;13.30;;;;;;;0.51;99.57;100706.19;12251664;19;20022;-86
2022/01/27 13:16:02;;;;;;;36.47;13.57;;;;;;;0.47;99.72;100705.63;12249849;19;20007;-87
2022/01/27 13:20:26;;;;;;;34.65;13.38;;;;;;;0.53;99.55;100709.56;12251401;19;20007;-86
2022/01/27 13:24:31;;;;;;;36.10;13.55;;;;;;;0.55;99.50;100711.09;12244365;19;20022;-88
2022/01/27 13:28:36;;;;;;;34.10;12.35;;;;;;;0.58;99.44;100707.22;12251455;19;20031;-85
2022/01/27 13:33:03;;;;;;;35.33;14.05;;;;;;;0.61;99.77;100702.31;12241865;19;20037;-86
2022/01/27 13:37:07;;;;;;;32.30;13.07;;;;;;;0.56;100.00;100695.66;12248902;19;20003;-85
2022/01/27 13:41:23;;;;;;;40.15;12.77;;;;;;;0.64;100.00;100690.28;12243248;19;20003;-87
2022/01/27 13:45:28;;;;;;;38.88;14.98;;;;;;;0.56;100.00;100682.94;12251127;19;20015;-87
2022/01/27 13:54:24;;;;;;;33.00;13.13;;;;;;;0.71;100.00;100685.88;12249169;19;20435;-86
2022/01/27 13:58:31;;;;;;;32.67;12.27;;;;;;;0.87;100.00;100690.53;12255128;19;20006;-86
2022/01/27 14:02:40;;;;;;;34.97;14.30;;;;;;;0.98;100.00;100694.78;12257436;19;20019;-85
2022/01/27 14:06:54;;;;;;;35.42;14.30;;;;;;;1.00;100.00;100714.47;12245871;19;20064;-86
2022/01/27 14:16:13;;;;;;;32.70;12.55;;;;;;;0.78;100.00;100708.66;12240793;19;19922;-87
2022/01/27 14:20:51;;;;;;;34.60;12.88;;;;;;;0.78;100.00;100691.53;12232585;19;20034;-85
2022/01/27 14:25:22;;;;;;;30.77;11.68;;;;;;;0.82;100.00;100698.31;12240200;19;20015;-86
2022/01/27 14:29:27;;;;;;;36.30;12.73;;;;;;;0.94;100.00;100696.13;12246069;19;20097;-87
2022/01/27 14:33:29;;;;;;;30.90;12.50;;;;;;;0.93;100.00;100708.03;12240905;19;20006;-87
2022/01/27 14:37:34;;;;;;;26.17;10.67;;;;;;;0.86;100.00;100700.53;12242097;19;20029;-87
2022/01/27 14:41:41;;;;;;;34.78;13.90;;;;;;;0.74;100.00;100707.25;12239179;19;20035;-87
2022/01/27 14:45:45;;;;;;;43.33;16.08;;;;;;;0.78;100.00;100703.22;12252233;19;20025;-87
2022/01/27 14:50:07;;;;;;;46.80;17.75;;;;;;;0.70;100.00;100697.75;12246501;19;20036;-86
2022/01/27 14:54:08;;;;;;;40.05;14.20;;;;;;;0.71;100.00;100715.72;12249136;19;20017;-83
2022/01/27 14:58:11;;;;;;;41.72;16.48;;;;;;;0.68;100.00;100700.66;12245102;19;20019;-83
2022/01/27 15:02:13;;;;;;;39.20;15.48;;;;;;;0.68;100.00;100694.34;12253170;19;20062;-84
2022/01/27 15:06:17;;;;;;;39.67;15.07;;;;;;;0.71;100.00;100698.59;12232607;19;20011;-82
2022/01/27 15:10:27;;;;;;;41.30;15.18;;;;;;;0.71;100.00;100696.75;12237589;19;20022;-85
2022/01/27 15:19:30;;;;;;;42.75;15.52;;;;;;;0.76;100.00;100694.38;12248441;19;20014;-84
2022/01/27 15:23:38;;;;;;;38.65;13.65;;;;;;;0.75;100.00;100698.13;12227634;19;20031;-83
2022/01/27 15:27:40;;;;;;;45.55;17.83;;;;;;;0.77;100.00;100690.66;12245367;19;20010;-83
2022/01/27 15:31:42;;;;;;;44.33;18.13;;;;;;;0.78;100.00;100688.81;12243653;19;20010;-83
2022/01/27 15:35:45;;;;;;;36.92;16.23;;;;;;;0.80;100.00;100700.34;12249986;19;20121;-84
2022/01/27 15:39:51;;;;;;;42.90;16.50;;;;;;;0.73;100.00;100686.59;12244706;19;20010;-84
2022/01/27 15:44:04;;;;;;;40.17;15.90;;;;;;;0.80;100.00;100706.59;12254707;19;20492;-83
2022/01/27 15:48:07;;;;;;;35.90;15.50;;;;;;;0.80;100.00;100703.03;12248902;19;20014;-84
2022/01/27 15:52:09;;;;;;;38.78;16.13;;;;;;;0.79;100.00;100704.91;12249548;19;20007;-84
2022/01/27 15:56:12;;;;;;;45.55;17.48;;;;;;;0.84;100.00;100699.84;12244796;19;20465;-84
2022/01/27 16:00:16;;;;;;;43.42;15.50;;;;;;;0.84;100.00;100699.00;12240298;19;20501;-82
2022/01/27 16:04:20;;;;;;;44.50;17.00;;;;;;;0.83;100.00;100694.56;12243464;19;21037;-83
2022/01/27 16:08:22;;;;;;;47.58;17.05;;;;;;;0.87;100.00;100713.09;12249504;19;20016;-83
2022/01/27 16:12:24;;;;;;;48.78;18.20;;;;;;;0.87;100.00;100704.09;12255086;19;20086;-83
2022/01/27 16:16:26;;;;;;;54.15;19.85;;;;;;;0.87;100.00;100702.22;12232408;19;20026;-84
2022/01/27 16:20:27;;;;;;;44.47;18.40;;;;;;;0.79;100.00;100699.50;12241574;19;20023;-83
2022/01/27 16:24:29;;;;;;;56.88;18.13;;;;;;;0.89;100.00;100697.50;12224828;19;20565;-82
2022/01/27 16:28:31;;;;;;;51.55;19.20;;;;;;;0.89;100.00;100694.78;12231934;19;20002;-82
2022/01/27 16:32:32;;;;;;;51.92;17.98;;;;;;;0.86;100.00;100700.53;12229055;19;20023;-83
2022/01/27 16:36:34;;;;;;;44.75;18.25;;;;;;;0.86;100.00;100695.13;12238669;19;20011;-83
2022/01/27 16:40:36;;;;;;;48.72;18.60;;;;;;;0.82;100.00;100688.31;12235557;19;20010;-82
2022/01/27 16:44:43;;;;;;;44.80;17.20;;;;;;;0.84;100.00;100699.84;12232639;19;20042;-81
2022/01/27 16:48:44;;;;;;;38.27;17.50;;;;;;;0.82;100.00;100695.59;12243943;19;20007;-81
2022/01/27 16:52:46;;;;;;;51.03;17.95;;;;;;;0.87;100.00;100696.81;12234033;19;20011;-82
2022/01/27 16:56:48;;;;;;;43.00;16.25;;;;;;;0.89;100.00;100702.94;12232745;19;20367;-83
2022/01/27 17:00:50;;;;;;;46.00;17.13;;;;;;;0.89;100.00;100702.06;12252055;19;20062;-82
2022/01/27 17:04:52;;;;;;;34.60;15.97;;;;;;;0.96;100.00;100707.69;12232939;19;20006;-82
2022/01/27 17:08:54;;;;;;;45.67;16.52;;;;;;;1.02;100.00;100709.75;12234063;19;20060;-82
2022/01/27 17:12:56;;;;;;;38.95;14.68;;;;;;;0.98;100.00;100700.22;12233396;19;20006;-83
2022/01/27 17:16:58;;;;;;;42.83;15.75;;;;;;;1.01;100.00;100699.88;12243092;19;20047;-82
2022/01/27 17:21:00;;;;;;;38.10;15.87;;;;;;;1.03;100.00;100703.28;12239889;19;20003;-82
2022/01/27 17:25:05;;;;;;;38.00;16.73;;;;;;;1.09;100.00;100702.63;12229661;19;20006;-83
2022/01/27 17:29:12;;;;;;;38.85;17.67;;;;;;;1.16;100.00;100711.81;12238162;19;20002;-81
2022/01/27 17:33:14;;;;;;;35.95;14.70;;;;;;;1.10;100.00;100712.44;12237555;19;20003;-82
2022/01/27 17:37:15;;;;;;;34.15;15.48;;;;;;;1.18;100.00;100704.34;12240699;19;20797;-84
2022/01/27 17:41:26;;;;;;;32.50;15.20;;;;;;;1.18;100.00;100707.03;12239933;19;20015;-83
2022/01/27 17:45:29;;;;;;;39.28;14.80;;;;;;;1.14;100.00;100709.25;12243325;19;20007;-80
2022/01/27 17:49:36;;;;;;;36.40;15.43;;;;;;;1.17;100.00;100710.78;12247998;19;20031;-82
2022/01/27 17:53:43;;;;;;;34.33;14.98;;;;;;;1.24;100.00;100713.69;12244078;19;20031;-82
2022/01/27 17:57:50;;;;;;;46.20;17.45;;;;;;;1.21;100.00;100720.28;12247485;19;20022;-82
2022/01/27 18:01:52;;;;;;;36.17;14.75;;;;;;;1.23;100.00;100712.84;12244988;19;20011;-82
2022/01/27 18:05:58;;;;;;;36.47;14.13;;;;;;;1.27;100.00;100714.19;12239717;19;20014;-81
2022/01/27 18:10:04;;;;;;;37.42;14.77;;;;;;;1.26;100.00;100726.06;12250820;19;20011;-83
2022/01/27 18:14:06;;;;;;;37.20;15.77;;;;;;;1.29;100.00;100714.88;12250453;19;20010;-82
2022/01/27 18:18:08;;;;;;;29.40;13.30;;;;;;;1.36;100.00;100709.63;12253176;19;20297;-82
2022/01/27 18:22:09;;;;;;;33.42;15.10;;;;;;;1.40;100.00;100713.72;12259202;19;19999;-83
2022/01/27 18:26:17;;;;;;;41.05;14.80;;;;;;;1.44;100.00;100712.34;12263686;19;20014;-82
2022/01/27 18:30:20;;;;;;;29.95;12.85;;;;;;;1.43;100.00;100697.09;12258315;19;20007;-84
2022/01/27 18:34:22;;;;;;;28.35;13.35;;;;;;;1.49;100.00;100712.69;12251146;19;20021;-82
2022/01/27 18:38:24;;;;;;;35.40;14.35;;;;;;;1.58;100.00;100719.00;12247572;19;20674;-83
2022/01/27 18:42:26;;;;;;;28.92;13.02;;;;;;;1.61;100.00;100710.50;12249184;19;20010;-83
2022/01/27 18:46:27;;;;;;;22.58;10.55;;;;;;;1.59;100.00;100696.22;12261139;19;20018;-81
2022/01/27 18:50:29;;;;;;;26.83;12.38;;;;;;;1.66;100.00;100686.38;12267009;19;20006;-82
2022/01/27 18:54:33;;;;;;;27.23;11.63;;;;;;;1.74;100.00;100682.81;12260181;19;20014;-81
2022/01/27 18:58:35;;;;;;;19.25;9.95;;;;;;;1.76;100.00;100714.22;12255840;19;20045;-80
2022/01/27 19:02:36;;;;;;;22.48;10.18;;;;;;;1.77;100.00;100688.75;12262001;19;20046;-82
2022/01/27 19:06:38;;;;;;;19.58;9.63;;;;;;;1.82;100.00;100691.81;12254307;19;20078;-81
2022/01/27 19:10:42;;;;;;;17.15;8.48;;;;;;;1.88;100.00;100690.28;12260116;19;20394;-83
2022/01/27 19:14:43;;;;;;;17.58;8.63;;;;;;;1.97;100.00;100693.84;12256930;19;20055;-84
2022/01/27 19:18:45;;;;;;;19.80;9.27;;;;;;;1.99;100.00;100686.31;12260042;19;20018;-83
2022/01/27 19:23:07;;;;;;;20.17;9.65;;;;;;;1.93;100.00;100687.88;12245492;19;20402;-81
2022/01/27 19:27:12;;;;;;;15.23;7.65;;;;;;;1.98;100.00;100692.81;12246922;19;20293;-84
2022/01/27 19:31:16;;;;;;;17.75;8.30;;;;;;;1.94;100.00;100691.47;12250778;19;20011;-84
2022/01/27 19:35:20;;;;;;;15.57;7.40;;;;;;;1.94;100.00;100695.03;12257442;19;20007;-84
2022/01/27 19:39:26;;;;;;;12.43;7.40;;;;;;;2.00;100.00;100705.19;12254176;19;20003;-81
2022/01/27 19:43:42;;;;;;;14.70;6.97;;;;;;;2.02;100.00;100705.00;12262117;19;20010;-83
2022/01/27 19:48:01;;;;;;;13.55;7.07;;;;;;;2.03;100.00;100698.56;12256433;19;20010;-83
2022/01/27 19:52:07;;;;;;;14.90;6.53;;;;;;;2.00;100.00;100699.75;12254333;19;20006;-83
2022/01/27 19:56:11;;;;;;;16.25;7.70;;;;;;;1.99;100.00;100713.50;12253929;19;20014;-83
2022/01/27 20:00:14;;;;;;;15.82;7.97;;;;;;;2.02;100.00;100734.91;12254128;19;20018;-83
2022/01/27 20:04:19;;;;;;;14.55;6.80;;;;;;;2.09;100.00;100737.81;12245720;19;20003;-84
2022/01/27 20:08:21;;;;;;;15.10;7.25;;;;;;;2.13;100.00;100725.56;12244811;19;20091;-83
2022/01/27 20:12:29;;;;;;;14.60;7.15;;;;;;;2.17;100.00;100716.91;12255673;19;20058;-85